Time;durP1;ratioP1;P1;durP2;ratioP2;P2;SDS_P1;SDS_P2;PMS_P1;PMS_P2;Temp;Humidity;BMP_temperature;BMP_pressure;BME280_temperature;BME280_humidity;BME280_pressure;Samples;Min_cycle;Max_cycle;Signal;HPM_P1;HPM_P2
2021/07/01 00:01:37;;;;;;;31.60;11.83;;;15.70;99.90;;;;;;4990622;28;20194;-85
2021/07/01 00:04:03;;;;;;;26.00;12.03;;;15.70;99.90;;;;;;4993112;28;20273;-86
2021/07/01 00:06:29;;;;;;;26.80;13.03;;;15.70;99.90;;;;;;4975309;28;20177;-84
2021/07/01 00:08:55;;;;;;;29.00;12.63;;;15.80;99.90;;;;;;4977849;28;20259;-85
2021/07/01 00:11:20;;;;;;;25.67;12.40;;;15.80;99.90;;;;;;4975194;28;20198;-85
2021/07/01 00:13:46;;;;;;;24.50;12.63;;;15.90;99.90;;;;;;4978803;28;20195;-85
2021/07/01 00:16:12;;;;;;;26.70;12.10;;;15.90;99.90;;;;;;4975432;28;20188;-84
2021/07/01 00:18:37;;;;;;;23.87;12.33;;;15.80;99.90;;;;;;4975922;28;20183;-85
2021/07/01 00:21:03;;;;;;;22.50;11.90;;;15.90;99.90;;;;;;4991512;28;20209;-84
2021/07/01 00:23:29;;;;;;;24.07;11.87;;;15.90;99.90;;;;;;4987268;28;20204;-85
2021/07/01 00:25:55;;;;;;;25.70;12.03;;;15.90;99.90;;;;;;4990691;28;20274;-86
2021/07/01 00:28:21;;;;;;;23.83;12.23;;;15.90;99.90;;;;;;4978107;28;20594;-84
2021/07/01 00:30:47;;;;;;;26.27;11.77;;;16.00;99.90;;;;;;4976182;28;20198;-86
2021/07/01 00:33:12;;;;;;;22.97;11.67;;;15.80;99.90;;;;;;4973976;28;20195;-86
2021/07/01 00:35:38;;;;;;;27.33;11.90;;;15.70;99.90;;;;;;4974415;28;20271;-85
2021/07/01 00:38:04;;;;;;;26.57;12.10;;;15.70;99.90;;;;;;4991222;28;20337;-85
2021/07/01 00:40:30;;;;;;;22.07;11.17;;;15.70;99.90;;;;;;4972472;28;20231;-85
2021/07/01 00:42:56;;;;;;;27.10;12.10;;;15.80;99.90;;;;;;4990755;28;20194;-85
2021/07/01 00:45:21;;;;;;;28.37;12.37;;;15.80;99.90;;;;;;4982553;28;20281;-86
2021/07/01 00:47:47;;;;;;;26.23;11.70;;;15.90;99.90;;;;;;4979053;28;20210;-86
2021/07/01 00:50:14;;;;;;;26.80;11.67;;;15.90;99.90;;;;;;4979729;28;20241;-86
2021/07/01 00:52:40;;;;;;;23.57;11.50;;;15.90;99.90;;;;;;4977039;28;20203;-85
2021/07/01 00:55:07;;;;;;;27.75;13.75;;;15.90;99.90;;;;;;4994637;28;20815;-87
2021/07/01 00:57:33;;;;;;;20.97;11.40;;;15.80;99.90;;;;;;4991649;28;20185;-87
2021/07/01 01:00:00;;;;;;;23.37;11.27;;;15.90;99.90;;;;;;4979873;28;20668;-86
2021/07/01 01:02:25;;;;;;;24.70;11.53;;;15.90;99.90;;;;;;4979385;28;20258;-86
2021/07/01 01:04:51;;;;;;;23.40;11.47;;;16.00;99.90;;;;;;4978561;28;20196;-86
2021/07/01 01:07:18;;;;;;;23.63;11.13;;;16.10;99.90;;;;;;4978603;28;20188;-86
2021/07/01 01:09:44;;;;;;;22.27;12.13;;;16.10;99.90;;;;;;4973855;28;20186;-86
2021/07/01 01:12:11;;;;;;;27.20;12.33;;;16.10;99.90;;;;;;4976985;28;20177;-85
2021/07/01 01:14:38;;;;;;;26.90;11.50;;;16.10;99.90;;;;;;4976652;28;20183;-86
2021/07/01 01:17:07;;;;;;;22.93;11.60;;;16.20;99.90;;;;;;4974719;28;20269;-85
2021/07/01 01:19:33;;;;;;;24.83;12.20;;;16.10;99.90;;;;;;4991383;28;20211;-84
2021/07/01 01:22:00;;;;;;;25.93;12.57;;;16.10;99.90;;;;;;4992081;28;20183;-85
2021/07/01 01:24:26;;;;;;;23.93;12.47;;;16.20;99.90;;;;;;4996291;28;20198;-86
2021/07/01 01:26:53;;;;;;;26.17;12.60;;;16.10;99.90;;;;;;4977794;28;20259;-86
2021/07/01 01:29:20;;;;;;;24.03;12.17;;;16.00;99.90;;;;;;4977001;28;20282;-86
2021/07/01 01:31:47;;;;;;;24.57;11.87;;;16.00;99.90;;;;;;4993194;28;20241;-86
2021/07/01 01:34:16;;;;;;;25.97;12.73;;;16.00;99.90;;;;;;4975744;28;20206;-85
2021/07/01 01:36:41;;;;;;;27.07;12.80;;;16.00;99.90;;;;;;4977915;28;20666;-86
2021/07/01 01:39:09;;;;;;;24.10;12.37;;;16.00;99.90;;;;;;4980054;28;20211;-85
2021/07/01 01:41:41;;;;;;;22.80;12.13;;;16.00;99.90;;;;;;4984699;28;20246;-85
2021/07/01 01:44:07;;;;;;;26.03;12.73;;;15.90;99.90;;;;;;5013729;28;21114;-86
2021/07/01 01:46:40;;;;;;;22.80;12.27;;;15.80;99.90;;;;;;4982453;28;20237;-86
2021/07/01 01:49:08;;;;;;;26.93;12.53;;;15.80;99.90;;;;;;4981463;28;20189;-85
2021/07/01 01:51:37;;;;;;;26.97;13.03;;;15.80;99.90;;;;;;4980246;28;20211;-85
2021/07/01 01:54:06;;;;;;;28.03;12.63;;;15.80;99.90;;;;;;4983844;28;20236;-86
2021/07/01 01:56:37;;;;;;;25.10;12.23;;;15.70;99.90;;;;;;4981190;28;20639;-86
2021/07/01 01:59:07;;;;;;;26.87;12.70;;;15.70;99.90;;;;;;4983404;28;20186;-86
2021/07/01 02:01:59;;;;;;;25.03;12.33;;;15.80;99.90;;;;;;4963010;28;20218;-86
2021/07/01 02:04:35;;;;;;;21.00;12.67;;;15.80;99.90;;;;;;4987767;28;20213;-86
2021/07/01 02:07:01;;;;;;;32.37;13.30;;;15.90;99.90;;;;;;4995322;28;20225;-85
2021/07/01 02:09:41;;;;;;;22.87;12.47;;;15.90;99.90;;;;;;4997503;28;20190;-86
2021/07/01 02:12:07;;;;;;;24.10;12.83;;;16.10;99.90;;;;;;4996684;28;20534;-86
2021/07/01 02:14:35;;;;;;;25.97;13.47;;;16.10;99.90;;;;;;4980346;28;20186;-86
2021/07/01 02:17:12;;;;;;;25.03;12.97;;;16.00;99.90;;;;;;4979707;28;20186;-86
2021/07/01 02:19:38;;;;;;;24.83;13.57;;;16.10;99.90;;;;;;4979201;28;20561;-85
2021/07/01 02:22:05;;;;;;;29.90;13.50;;;16.20;99.90;;;;;;4996204;28;20175;-85
2021/07/01 02:24:36;;;;;;;23.83;13.20;;;16.20;99.90;;;;;;4997162;28;20176;-86
2021/07/01 02:27:03;;;;;;;28.90;13.57;;;16.20;99.90;;;;;;4981088;28;20188;-85
2021/07/01 02:29:29;;;;;;;30.07;14.00;;;16.20;99.90;;;;;;4978715;28;20266;-86
2021/07/01 02:32:07;;;;;;;26.63;13.80;;;16.00;99.90;;;;;;4982454;28;20182;-87
2021/07/01 02:34:40;;;;;;;27.10;13.77;;;16.00;99.90;;;;;;4977587;28;20283;-84
2021/07/01 02:37:44;;;;;;;26.77;14.50;;;16.00;99.90;;;;;;5001245;28;20198;-86
2021/07/01 02:40:20;;;;;;;22.63;13.73;;;16.00;99.90;;;;;;4980367;28;20234;-85
2021/07/01 02:42:55;;;;;;;27.47;14.17;;;16.10;99.90;;;;;;4980519;28;20179;-85
2021/07/01 02:45:22;;;;;;;26.20;14.37;;;16.00;99.90;;;;;;4994840;28;20682;-85
2021/07/01 02:47:54;;;;;;;26.50;14.07;;;15.80;99.90;;;;;;4996328;28;20260;-85
2021/07/01 02:50:21;;;;;;;27.13;13.77;;;15.80;99.90;;;;;;4981552;28;20184;-84
2021/07/01 02:52:46;;;;;;;28.83;14.03;;;15.90;99.90;;;;;;4997412;28;20170;-86
2021/07/01 02:55:12;;;;;;;32.17;15.13;;;15.80;99.90;;;;;;4997821;28;20520;-85
2021/07/01 02:57:38;;;;;;;25.13;13.67;;;15.90;99.90;;;;;;4981065;28;20189;-85
2021/07/01 03:00:11;;;;;;;21.53;12.70;;;15.90;99.90;;;;;;4997760;28;20222;-84
2021/07/01 03:02:40;;;;;;;29.83;14.43;;;15.90;99.90;;;;;;4981714;28;20170;-85
2021/07/01 03:05:18;;;;;;;26.33;13.70;;;15.90;99.90;;;;;;4982145;28;20175;-85
2021/07/01 03:07:44;;;;;;;24.67;13.70;;;15.90;99.90;;;;;;4981333;28;20663;-85
2021/07/01 03:10:11;;;;;;;28.70;13.97;;;15.90;99.90;;;;;;4981485;28;20174;-86
2021/07/01 03:12:53;;;;;;;26.43;14.03;;;15.80;99.90;;;;;;4983649;28;20669;-86
2021/07/01 03:15:19;;;;;;;28.73;14.53;;;15.80;99.90;;;;;;4981188;28;20182;-86
2021/07/01 03:17:45;;;;;;;28.83;14.00;;;16.00;99.90;;;;;;4981250;28;20184;-85
2021/07/01 03:20:11;;;;;;;28.60;15.47;;;16.00;99.90;;;;;;4997148;28;20763;-85
2021/07/01 03:23:06;;;;;;;28.17;14.77;;;16.00;99.90;;;;;;5001275;28;20183;-85
2021/07/01 03:25:32;;;;;;;28.10;14.23;;;16.10;99.90;;;;;;4980702;28;20213;-85
2021/07/01 03:27:58;;;;;;;26.50;14.50;;;15.90;99.90;;;;;;4980929;28;20236;-86
2021/07/01 03:30:24;;;;;;;25.10;14.37;;;15.80;99.90;;;;;;4978874;28;20191;-86
2021/07/01 03:32:50;;;;;;;29.00;14.77;;;15.90;99.90;;;;;;4996004;28;20240;-86
2021/07/01 03:35:16;;;;;;;25.83;14.43;;;15.80;99.90;;;;;;4980477;28;20218;-85
2021/07/01 03:38:08;;;;;;;22.03;13.50;;;15.70;99.90;;;;;;4988411;28;20194;-85
2021/07/01 03:40:49;;;;;;;27.83;13.97;;;15.60;99.90;;;;;;4993898;28;20274;-85
2021/07/01 03:43:17;;;;;;;32.30;13.83;;;15.60;99.90;;;;;;4982338;28;20263;-85
2021/07/01 03:45:46;;;;;;;27.97;14.67;;;15.70;99.90;;;;;;4981887;28;20210;-85
2021/07/01 03:48:12;;;;;;;30.43;14.63;;;15.80;99.90;;;;;;4993914;28;20343;-85
2021/07/01 03:50:52;;;;;;;31.70;15.67;;;15.80;99.90;;;;;;4979881;28;20183;-85
2021/07/01 03:53:27;;;;;;;25.67;14.20;;;15.90;99.90;;;;;;4994787;28;20200;-84
2021/07/01 03:55:53;;;;;;;28.90;14.03;;;15.90;99.90;;;;;;4978681;28;20720;-85
2021/07/01 03:58:19;;;;;;;27.17;14.30;;;15.90;99.90;;;;;;4994792;28;20180;-86
2021/07/01 04:00:58;;;;;;;26.47;14.20;;;15.90;99.90;;;;;;4981187;28;20209;-85
2021/07/01 04:03:24;;;;;;;24.57;13.80;;;15.90;99.90;;;;;;4979484;28;20178;-87
2021/07/01 04:06:15;;;;;;;24.83;12.93;;;15.90;99.90;;;;;;4998475;28;20189;-85
2021/07/01 04:08:42;;;;;;;29.47;14.33;;;16.00;99.90;;;;;;4977726;28;20189;-87
2021/07/01 04:11:10;;;;;;;24.47;13.20;;;16.00;99.90;;;;;;4976880;28;20211;-84
2021/07/01 04:13:36;;;;;;;23.60;12.90;;;15.90;99.90;;;;;;4995874;28;20197;-85
2021/07/01 04:16:21;;;;;;;23.73;12.97;;;15.90;99.90;;;;;;4999673;28;20691;-85
2021/07/01 04:19:05;;;;;;;24.00;12.57;;;16.00;99.90;;;;;;4999370;28;20211;-85
2021/07/01 04:21:49;;;;;;;25.57;12.20;;;15.90;99.90;;;;;;5000328;28;20198;-85
2021/07/01 04:24:33;;;;;;;19.73;11.47;;;15.70;99.90;;;;;;5000942;28;20955;-86
2021/07/01 04:27:19;;;;;;;25.13;12.47;;;15.70;99.90;;;;;;4996277;28;20250;-86
2021/07/01 04:29:46;;;;;;;27.43;11.87;;;15.80;99.90;;;;;;4996662;28;20652;-84
2021/07/01 04:32:15;;;;;;;22.20;10.83;;;15.80;99.90;;;;;;4980245;28;20183;-85
2021/07/01 04:34:41;;;;;;;23.50;11.47;;;15.70;99.90;;;;;;4995257;28;20279;-83
2021/07/01 04:37:07;;;;;;;19.57;11.17;;;15.80;99.90;;;;;;4996209;28;20652;-85
2021/07/01 04:39:44;;;;;;;22.37;11.27;;;15.60;99.90;;;;;;4991822;28;20344;-84
2021/07/01 04:42:14;;;;;;;23.13;11.93;;;15.70;99.90;;;;;;4995252;28;20186;-86
2021/07/01 04:44:40;;;;;;;23.67;12.70;;;15.70;99.90;;;;;;4996229;28;20603;-87
2021/07/01 04:47:08;;;;;;;21.70;11.93;;;15.80;99.90;;;;;;4983312;28;20212;-85
2021/07/01 04:49:35;;;;;;;22.93;11.50;;;15.80;99.90;;;;;;4981533;28;20202;-85
2021/07/01 04:52:30;;;;;;;25.77;11.77;;;15.90;99.90;;;;;;4978155;28;20196;-85
2021/07/01 04:55:14;;;;;;;26.60;11.83;;;15.90;99.90;;;;;;4997801;28;20194;-84
2021/07/01 04:58:15;;;;;;;21.97;11.53;;;15.80;99.90;;;;;;5004414;28;20190;-84
2021/07/01 05:00:48;;;;;;;20.40;11.17;;;15.70;99.90;;;;;;4997232;28;20729;-87
2021/07/01 05:03:52;;;;;;;22.77;11.63;;;15.60;99.90;;;;;;5003586;28;20186;-85
2021/07/01 05:06:18;;;;;;;23.60;11.47;;;15.70;99.90;;;;;;4982504;28;20280;-85
2021/07/01 05:08:45;;;;;;;18.10;10.20;;;15.90;99.90;;;;;;4998045;28;20176;-85
2021/07/01 05:11:11;;;;;;;22.17;11.07;;;16.10;99.90;;;;;;4981888;28;20211;-85
2021/07/01 05:13:37;;;;;;;21.33;10.03;;;16.20;99.90;;;;;;4981192;28;20215;-86
2021/07/01 05:16:03;;;;;;;17.17;9.90;;;16.20;99.90;;;;;;4975694;28;20183;-86
2021/07/01 05:18:30;;;;;;;24.57;10.67;;;16.20;99.90;;;;;;4980235;28;20187;-85
2021/07/01 05:21:15;;;;;;;17.97;9.83;;;16.30;99.90;;;;;;4984891;28;20206;-85
2021/07/01 05:24:00;;;;;;;19.33;9.80;;;16.40;99.90;;;;;;4999917;28;20246;-87
2021/07/01 05:26:55;;;;;;;19.73;9.27;;;16.60;99.90;;;;;;4998948;28;20183;-86
2021/07/01 05:29:39;;;;;;;16.30;8.83;;;16.40;99.90;;;;;;4998622;28;20230;-86
2021/07/01 05:32:25;;;;;;;20.80;9.13;;;16.50;99.90;;;;;;4989157;28;20207;-84
2021/07/01 05:35:10;;;;;;;19.00;8.43;;;16.50;99.90;;;;;;4994973;28;20205;-85
2021/07/01 05:37:45;;;;;;;19.43;9.00;;;16.60;99.90;;;;;;4981723;28;20244;-84
2021/07/01 05:40:12;;;;;;;22.83;8.67;;;16.50;99.90;;;;;;4996317;28;20233;-85
2021/07/01 05:42:37;;;;;;;17.13;8.70;;;16.40;99.90;;;;;;4994569;28;20196;-85
2021/07/01 05:45:05;;;;;;;18.80;8.13;;;16.50;99.90;;;;;;4995678;28;20241;-84
2021/07/01 05:47:32;;;;;;;17.77;8.90;;;16.50;99.90;;;;;;4993526;28;20673;-86
2021/07/01 05:49:58;;;;;;;17.80;8.50;;;16.60;99.90;;;;;;4996233;28;20259;-86
2021/07/01 05:52:27;;;;;;;18.50;8.37;;;16.70;99.90;;;;;;4979266;28;20184;-85
2021/07/01 05:54:56;;;;;;;18.13;7.73;;;16.90;99.90;;;;;;4979521;28;20212;-86
2021/07/01 05:57:28;;;;;;;21.60;8.47;;;17.10;99.90;;;;;;4978192;28;20221;-85
2021/07/01 05:59:54;;;;;;;18.40;8.17;;;17.40;99.90;;;;;;5011058;28;20544;-85
2021/07/01 06:02:20;;;;;;;21.43;8.97;;;17.50;99.90;;;;;;4977889;28;20604;-85
2021/07/01 06:04:45;;;;;;;19.57;9.00;;;17.50;99.90;;;;;;4979620;28;20190;-85
2021/07/01 06:07:24;;;;;;;21.67;8.77;;;17.40;99.90;;;;;;5012906;28;20188;-86
2021/07/01 06:09:57;;;;;;;18.17;8.87;;;17.20;99.90;;;;;;4994782;28;20201;-85
2021/07/01 06:12:23;;;;;;;15.40;9.30;;;17.20;99.90;;;;;;4979460;28;20234;-87
2021/07/01 06:14:56;;;;;;;16.47;8.83;;;17.30;99.90;;;;;;4991906;28;20758;-86
2021/07/01 06:17:23;;;;;;;16.83;8.77;;;17.30;99.90;;;;;;4994998;28;20212;-86
2021/07/01 06:19:49;;;;;;;18.33;8.57;;;17.20;99.90;;;;;;4980795;28;20180;-85
2021/07/01 06:22:18;;;;;;;21.30;8.77;;;17.10;99.90;;;;;;4979978;28;20177;-85
2021/07/01 06:24:44;;;;;;;18.83;8.47;;;17.00;99.90;;;;;;4991381;28;20286;-85
2021/07/01 06:27:11;;;;;;;17.43;8.10;;;16.80;99.90;;;;;;4981013;28;20246;-84
2021/07/01 06:29:38;;;;;;;19.87;7.30;;;16.30;99.90;;;;;;4977978;28;20187;-83
2021/07/01 06:32:04;;;;;;;14.60;7.63;;;15.90;99.90;;;;;;4982683;28;20236;-85
2021/07/01 06:34:30;;;;;;;16.87;7.40;;;15.70;99.90;;;;;;4978936;28;20192;-83
2021/07/01 06:37:03;;;;;;;16.63;7.43;;;15.50;99.90;;;;;;4980969;28;20178;-84
2021/07/01 06:39:51;;;;;;;15.53;6.57;;;15.50;99.90;;;;;;4995741;28;20771;-84
2021/07/01 06:42:47;;;;;;;15.63;7.37;;;15.40;99.90;;;;;;4998833;28;20239;-84
2021/07/01 06:45:33;;;;;;;17.23;7.93;;;15.30;99.90;;;;;;5005797;28;20289;-84
2021/07/01 06:48:21;;;;;;;18.00;8.23;;;15.40;99.90;;;;;;4977929;28;20212;-84
2021/07/01 06:51:08;;;;;;;17.13;7.77;;;15.60;99.90;;;;;;4967783;28;20213;-84
2021/07/01 06:53:54;;;;;;;16.77;6.90;;;15.60;99.90;;;;;;5011629;28;20241;-85
2021/07/01 06:56:58;;;;;;;15.77;6.47;;;15.60;99.90;;;;;;4961209;28;20219;-85
2021/07/01 06:59:26;;;;;;;14.17;5.53;;;15.90;99.90;;;;;;4973569;28;20198;-84
2021/07/01 07:01:53;;;;;;;15.17;5.67;;;16.10;99.90;;;;;;4995280;28;20182;-85
2021/07/01 07:04:19;;;;;;;15.30;5.20;;;16.00;99.90;;;;;;4994906;28;20210;-84
2021/07/01 07:06:46;;;;;;;14.27;4.80;;;16.00;99.90;;;;;;5014648;28;20186;-84
2021/07/01 07:09:13;;;;;;;14.70;4.83;;;16.00;99.90;;;;;;5013507;28;20231;-83
2021/07/01 07:11:39;;;;;;;14.50;5.10;;;15.90;99.90;;;;;;5012496;28;20203;-83
2021/07/01 07:14:05;;;;;;;14.27;5.30;;;15.80;99.90;;;;;;4977605;28;20530;-84
2021/07/01 07:16:38;;;;;;;10.67;4.77;;;15.70;99.90;;;;;;4977077;28;20191;-84
2021/07/01 07:19:06;;;;;;;12.03;5.20;;;15.80;99.90;;;;;;4982731;28;20187;-85
2021/07/01 07:21:36;;;;;;;10.63;5.23;;;15.90;99.90;;;;;;4978888;28;20193;-83
2021/07/01 07:24:04;;;;;;;12.17;5.30;;;16.00;99.90;;;;;;4991017;28;20189;-83
2021/07/01 07:26:30;;;;;;;12.63;4.87;;;15.50;99.90;;;;;;4994597;28;20592;-85
2021/07/01 07:28:56;;;;;;;12.30;5.27;;;15.60;99.90;;;;;;4980072;28;20662;-84
2021/07/01 07:31:31;;;;;;;18.90;6.80;;;15.70;99.90;;;;;;4978044;28;20210;-84
2021/07/01 07:34:04;;;;;;;13.87;4.90;;;16.00;99.90;;;;;;5002328;28;20266;-83
2021/07/01 07:36:30;;;;;;;16.67;5.10;;;16.30;99.90;;;;;;4994472;28;20295;-83
2021/07/01 07:38:56;;;;;;;14.00;5.40;;;16.40;99.90;;;;;;4994037;28;20170;-84
2021/07/01 07:41:22;;;;;;;11.37;4.30;;;16.70;99.90;;;;;;4978536;28;20200;-84
2021/07/01 07:43:50;;;;;;;12.67;4.60;;;16.90;99.90;;;;;;4976556;28;20222;-84
2021/07/01 07:46:20;;;;;;;17.80;4.70;;;16.70;99.90;;;;;;4980374;28;20270;-83
2021/07/01 07:48:47;;;;;;;12.87;3.83;;;16.90;99.90;;;;;;4992968;28;20192;-84
2021/07/01 07:51:16;;;;;;;14.37;4.60;;;16.80;99.90;;;;;;4969610;28;20199;-83
2021/07/01 07:53:45;;;;;;;13.77;4.03;;;16.90;99.90;;;;;;4993525;28;20192;-84
2021/07/01 07:56:11;;;;;;;14.53;4.40;;;17.20;99.90;;;;;;4995334;28;20173;-85
2021/07/01 07:58:44;;;;;;;11.93;3.93;;;17.20;99.90;;;;;;5012791;28;20192;-85
2021/07/01 08:01:10;;;;;;;11.17;4.00;;;16.80;99.90;;;;;;4991113;28;20192;-85
2021/07/01 08:03:41;;;;;;;12.10;3.97;;;17.20;99.90;;;;;;4979187;28;20561;-85
2021/07/01 08:06:08;;;;;;;12.60;4.27;;;17.50;99.90;;;;;;4995724;28;20192;-85
2021/07/01 08:08:43;;;;;;;14.70;4.30;;;17.40;99.90;;;;;;4996117;28;20181;-84
2021/07/01 08:11:10;;;;;;;12.77;4.40;;;17.40;99.90;;;;;;4994842;28;20217;-85
2021/07/01 08:13:38;;;;;;;9.80;3.97;;;17.50;99.90;;;;;;4984677;28;20936;-85
2021/07/01 08:16:06;;;;;;;12.13;4.30;;;17.50;99.90;;;;;;4997230;28;20179;-84
2021/07/01 08:18:39;;;;;;;12.73;4.30;;;17.40;99.90;;;;;;4994285;28;20186;-85
2021/07/01 08:21:15;;;;;;;12.90;4.70;;;17.00;99.90;;;;;;4976758;28;20624;-85
2021/07/01 08:23:43;;;;;;;12.73;4.67;;;17.30;99.90;;;;;;4977402;28;20192;-86
2021/07/01 08:26:10;;;;;;;12.37;4.47;;;17.40;99.90;;;;;;4978233;28;20190;-85
2021/07/01 08:28:36;;;;;;;11.73;4.20;;;17.20;99.90;;;;;;4995113;28;20377;-85
2021/07/01 08:31:11;;;;;;;12.97;4.50;;;17.40;99.90;;;;;;4994461;28;20213;-85
2021/07/01 08:33:42;;;;;;;14.73;4.03;;;17.40;99.90;;;;;;4979631;28;20212;-85
2021/07/01 08:36:16;;;;;;;12.13;4.27;;;17.20;99.90;;;;;;4980931;28;20553;-85
2021/07/01 08:38:43;;;;;;;14.30;4.63;;;17.00;99.90;;;;;;5011872;28;20685;-85
2021/07/01 08:41:21;;;;;;;12.57;5.17;;;16.80;99.90;;;;;;4979771;28;20698;-86
2021/07/01 08:44:00;;;;;;;12.93;4.57;;;17.20;99.90;;;;;;4977722;28;20196;-86
2021/07/01 08:46:29;;;;;;;13.13;4.40;;;17.00;99.90;;;;;;4979644;28;20183;-84
2021/07/01 08:49:03;;;;;;;12.20;4.37;;;17.20;99.90;;;;;;4978207;28;20185;-86
2021/07/01 08:51:35;;;;;;;17.60;5.10;;;17.10;99.90;;;;;;4977519;28;20238;-86
2021/07/01 08:54:32;;;;;;;14.07;4.40;;;17.20;99.90;;;;;;4989557;28;20252;-85
2021/07/01 08:56:59;;;;;;;16.63;4.97;;;17.30;99.90;;;;;;5005314;28;20196;-86
2021/07/01 08:59:33;;;;;;;11.43;4.50;;;17.00;99.90;;;;;;4977444;28;20220;-85
2021/07/01 09:02:02;;;;;;;14.37;4.70;;;17.00;99.90;;;;;;4979547;28;20236;-85
2021/07/01 09:04:39;;;;;;;16.37;4.93;;;17.20;99.90;;;;;;4996325;28;20232;-86
2021/07/01 09:07:05;;;;;;;11.80;4.40;;;17.70;99.90;;;;;;4999041;28;20282;-86
2021/07/01 09:09:32;;;;;;;12.73;3.87;;;17.90;99.90;;;;;;4979677;28;20182;-86
2021/07/01 09:12:05;;;;;;;13.73;4.30;;;17.90;99.90;;;;;;4978999;28;20183;-85
2021/07/01 09:14:32;;;;;;;13.03;4.10;;;17.70;99.90;;;;;;4981934;28;20185;-86
2021/07/01 09:17:07;;;;;;;14.37;4.37;;;17.90;99.90;;;;;;5012840;28;20183;-85
2021/07/01 09:19:33;;;;;;;12.87;4.23;;;18.60;99.90;;;;;;5015531;28;20195;-86
2021/07/01 09:22:00;;;;;;;10.77;4.40;;;18.40;99.90;;;;;;4997829;28;20663;-86
2021/07/01 09:24:27;;;;;;;13.87;4.37;;;18.00;99.90;;;;;;4980705;28;20692;-86
2021/07/01 09:26:56;;;;;;;13.27;4.50;;;17.80;99.90;;;;;;4981321;28;20332;-85
2021/07/01 09:29:25;;;;;;;12.03;4.77;;;18.20;99.90;;;;;;4998322;28;20181;-86
2021/07/01 09:31:52;;;;;;;15.20;4.83;;;18.60;99.90;;;;;;4979770;28;20210;-86
2021/07/01 09:34:17;;;;;;;12.83;4.30;;;19.10;99.90;;;;;;5014125;28;20192;-86
2021/07/01 09:36:44;;;;;;;15.17;4.63;;;19.40;99.90;;;;;;4981562;28;20178;-88
2021/07/01 09:39:10;;;;;;;14.93;4.77;;;19.20;99.90;;;;;;4995040;28;20193;-86
2021/07/01 09:41:37;;;;;;;12.67;4.40;;;18.60;99.90;;;;;;4982903;28;20184;-86
2021/07/01 09:44:04;;;;;;;10.80;4.33;;;18.60;99.90;;;;;;4980060;28;20214;-86
2021/07/01 09:46:32;;;;;;;14.83;4.80;;;18.40;99.90;;;;;;4994300;28;20188;-86
2021/07/01 09:49:00;;;;;;;10.97;4.33;;;18.80;99.90;;;;;;4997198;28;20182;-87
2021/07/01 09:51:28;;;;;;;14.37;5.00;;;19.20;99.90;;;;;;4980702;28;20208;-83
2021/07/01 09:53:54;;;;;;;13.13;4.40;;;19.40;99.90;;;;;;4971529;28;20176;-85
2021/07/01 09:56:41;;;;;;;14.43;4.60;;;19.50;99.90;;;;;;4980543;28;20270;-85
2021/07/01 09:59:17;;;;;;;13.63;5.20;;;19.50;99.90;;;;;;4987688;28;20262;-85
2021/07/01 10:01:43;;;;;;;11.53;4.80;;;19.50;99.90;;;;;;4980747;28;20174;-85
2021/07/01 10:04:09;;;;;;;12.27;5.17;;;19.40;99.90;;;;;;4994247;28;20240;-84
2021/07/01 10:06:37;;;;;;;12.10;5.03;;;19.30;99.90;;;;;;4996671;28;20597;-85
2021/07/01 10:09:06;;;;;;;15.33;5.73;;;19.30;99.90;;;;;;4979125;28;20180;-85
2021/07/01 10:11:42;;;;;;;13.23;5.17;;;19.60;99.90;;;;;;4980160;28;20556;-86
2021/07/01 10:14:15;;;;;;;12.50;5.27;;;19.50;99.90;;;;;;4996672;28;20198;-84
2021/07/01 10:16:40;;;;;;;13.60;4.90;;;19.20;99.90;;;;;;4995071;28;20185;-85
2021/07/01 10:19:08;;;;;;;15.73;5.00;;;18.90;99.90;;;;;;4980066;28;20190;-84
2021/07/01 10:21:35;;;;;;;13.87;5.77;;;18.30;99.90;;;;;;4980796;28;20182;-85
2021/07/01 10:24:09;;;;;;;13.93;5.23;;;18.20;99.90;;;;;;4983893;28;20537;-85
2021/07/01 10:26:42;;;;;;;20.37;5.93;;;17.80;99.90;;;;;;4981302;28;20188;-84
2021/07/01 10:29:09;;;;;;;16.83;6.00;;;17.30;99.90;;;;;;4978000;28;20185;-84
2021/07/01 10:31:48;;;;;;;15.90;5.93;;;17.00;99.90;;;;;;4991283;28;20231;-84
2021/07/01 10:34:14;;;;;;;18.27;5.80;;;17.00;99.90;;;;;;4995561;28;20198;-84
2021/07/01 10:36:40;;;;;;;16.67;6.10;;;16.90;99.90;;;;;;4979795;28;20211;-85
2021/07/01 10:39:06;;;;;;;16.47;6.17;;;17.30;99.90;;;;;;4979460;28;20211;-85
2021/07/01 10:41:35;;;;;;;18.90;6.97;;;17.70;99.90;;;;;;4976725;28;20189;-85
2021/07/01 10:44:02;;;;;;;12.53;5.87;;;18.20;99.90;;;;;;4980435;28;20183;-85
2021/07/01 10:46:45;;;;;;;16.60;6.33;;;18.60;99.90;;;;;;4993963;28;20556;-84
2021/07/01 10:49:12;;;;;;;15.00;6.37;;;18.90;99.90;;;;;;4979937;28;20190;-85
2021/07/01 10:51:51;;;;;;;16.90;6.07;;;19.40;99.90;;;;;;4996332;28;20189;-85
2021/07/01 10:54:17;;;;;;;12.77;5.63;;;19.50;99.90;;;;;;4972318;28;20175;-85
2021/07/01 10:56:45;;;;;;;14.83;5.43;;;19.50;99.90;;;;;;4990755;28;20200;-85
2021/07/01 10:59:12;;;;;;;19.27;6.37;;;19.20;99.90;;;;;;4978528;28;20730;-85
2021/07/01 11:01:44;;;;;;;12.57;5.40;;;19.90;99.90;;;;;;5009904;28;20286;-85
2021/07/01 11:04:18;;;;;;;15.10;5.53;;;20.30;99.90;;;;;;4977324;28;20272;-85
2021/07/01 11:06:56;;;;;;;19.87;5.30;;;19.70;99.90;;;;;;4995973;28;20204;-85
2021/07/01 11:09:42;;;;;;;14.67;5.20;;;19.60;99.90;;;;;;4994699;28;20220;-86
2021/07/01 11:12:08;;;;;;;13.03;4.70;;;19.80;99.90;;;;;;5012576;28;20234;-85
2021/07/01 11:14:43;;;;;;;11.97;4.63;;;20.60;99.90;;;;;;4980172;28;20189;-85
2021/07/01 11:17:09;;;;;;;11.90;4.30;;;21.70;99.90;;;;;;4979268;28;20187;-85
2021/07/01 11:19:45;;;;;;;17.47;4.50;;;24.00;99.90;;;;;;4996515;28;20274;-86
2021/07/01 11:22:13;;;;;;;14.57;4.60;;;24.90;99.90;;;;;;4992896;28;20256;-86
2021/07/01 11:24:44;;;;;;;12.33;4.93;;;22.60;99.90;;;;;;4978420;28;20280;-86
2021/07/01 11:27:10;;;;;;;14.00;4.67;;;22.70;99.90;;;;;;5010778;28;20181;-85
2021/07/01 11:29:43;;;;;;;14.53;4.83;;;23.30;99.90;;;;;;4976971;28;20185;-86
2021/07/01 11:32:25;;;;;;;14.53;5.03;;;24.60;99.90;;;;;;4995156;28;20186;-85
2021/07/01 11:34:53;;;;;;;13.83;5.10;;;24.60;99.90;;;;;;4980137;28;20221;-86
2021/07/01 11:37:33;;;;;;;12.10;5.07;;;24.60;99.90;;;;;;4979322;28;20196;-86
2021/07/01 11:40:20;;;;;;;16.10;5.77;;;24.00;99.90;;;;;;4992965;28;20254;-85
2021/07/01 11:42:49;;;;;;;15.47;5.93;;;22.20;99.90;;;;;;4988519;28;20205;-86
2021/07/01 11:45:15;;;;;;;10.23;5.30;;;21.20;99.90;;;;;;4993342;28;20213;-87
2021/07/01 11:47:42;;;;;;;13.47;5.47;;;21.50;99.90;;;;;;4979271;28;20187;-85
2021/07/01 11:50:09;;;;;;;14.87;5.70;;;21.60;99.90;;;;;;4996054;28;20238;-86
2021/07/01 11:52:35;;;;;;;15.00;6.00;;;22.20;99.90;;;;;;4995108;28;20215;-87
2021/07/01 11:55:02;;;;;;;14.97;6.77;;;22.70;99.90;;;;;;4995208;28;20178;-86
2021/07/01 11:57:29;;;;;;;14.57;5.70;;;23.00;99.90;;;;;;4978091;28;20184;-86
2021/07/01 11:59:55;;;;;;;14.93;5.53;;;22.80;99.90;;;;;;5002931;28;20191;-86
2021/07/01 12:02:21;;;;;;;14.80;5.80;;;23.90;99.90;;;;;;4978205;28;20196;-86
2021/07/01 12:04:48;;;;;;;19.57;6.30;;;24.30;99.90;;;;;;4978181;28;20266;-87
2021/07/01 12:07:34;;;;;;;14.83;6.47;;;25.70;99.90;;;;;;4995346;28;20273;-86
2021/07/01 12:10:00;;;;;;;12.13;5.80;;;25.20;99.90;;;;;;4989891;28;20190;-86
2021/07/01 12:12:26;;;;;;;11.43;5.77;;;23.20;99.90;;;;;;4976037;28;20193;-84
2021/07/01 12:15:10;;;;;;;14.60;6.20;;;22.60;99.90;;;;;;4978288;28;21757;-85
2021/07/01 12:18:00;;;;;;;16.30;6.00;;;22.30;99.90;;;;;;4976426;28;20189;-85
2021/07/01 12:20:36;;;;;;;13.13;6.17;;;21.50;99.90;;;;;;4977902;28;20209;-85
2021/07/01 12:23:11;;;;;;;14.40;6.00;;;21.30;99.90;;;;;;4979512;28;20209;-85
2021/07/01 12:25:36;;;;;;;16.87;6.50;;;21.90;99.90;;;;;;4980782;28;20202;-86
2021/07/01 12:28:06;;;;;;;21.37;6.90;;;22.10;99.90;;;;;;4977054;28;20729;-88
2021/07/01 12:30:50;;;;;;;16.63;7.33;;;22.50;99.90;;;;;;4978603;28;20223;-85
2021/07/01 12:33:45;;;;;;;16.20;6.50;;;23.10;99.90;;;;;;4988228;28;20288;-86
2021/07/01 12:36:31;;;;;;;17.70;6.80;;;23.40;99.90;;;;;;4995753;28;20231;-86
2021/07/01 12:39:03;;;;;;;17.50;6.97;;;23.00;99.90;;;;;;4997269;28;20249;-84
2021/07/01 12:41:30;;;;;;;13.60;6.07;;;22.70;99.90;;;;;;4998107;28;20217;-86
2021/07/01 12:44:01;;;;;;;17.03;7.03;;;22.60;99.90;;;;;;4979751;28;20181;-86
2021/07/01 12:46:48;;;;;;;14.60;6.47;;;22.50;99.90;;;;;;4995165;28;21265;-85
2021/07/01 12:49:26;;;;;;;16.87;7.07;;;22.60;99.90;;;;;;4982401;28;20192;-85
2021/07/01 12:52:06;;;;;;;17.87;7.63;;;23.10;99.90;;;;;;4982204;28;20222;-86
2021/07/01 12:54:31;;;;;;;15.50;7.70;;;22.50;99.90;;;;;;4997402;28;20241;-86